Time;durP1;ratioP1;P1;durP2;ratioP2;P2;SDS_P1;SDS_P2;PMS_P1;PMS_P2;Temp;Humidity;BMP_temperature;BMP_pressure;BME280_temperature;BME280_humidity;BME280_pressure;Samples;Min_cycle;Max_cycle;Signal;HPM_P1;HPM_P2
2023/06/08 00:03:04;;;;;;;1.70;1.70;;;;;;;;;;6239194;28;20304;-70
2023/06/08 00:06:15;;;;;;;1.50;1.50;;;;;;;;;;6239227;28;20470;-70
2023/06/08 00:09:20;;;;;;;1.38;1.30;;;;;;;;;;6238350;28;20296;-70
2023/06/08 00:12:27;;;;;;;1.30;1.30;;;;;;;;;;6238790;28;20296;-69
2023/06/08 00:15:33;;;;;;;2.10;1.30;;;;;;;;;;6239180;28;20264;-70
2023/06/08 00:18:39;;;;;;;1.73;1.73;;;;;;;;;;6239108;28;20292;-71
2023/06/08 00:21:48;;;;;;;3.45;1.60;;;;;;;;;;6238856;28;20264;-70
2023/06/08 00:24:53;;;;;;;3.78;1.48;;;;;;;;;;6238743;28;20308;-71
2023/06/08 00:28:00;;;;;;;2.90;1.55;;;;;;;;;;6238399;28;20496;-70
2023/06/08 00:31:05;;;;;;;15.93;2.88;;;;;;;;;;6239106;28;20544;-69
2023/06/08 00:34:10;;;;;;;3.03;1.33;;;;;;;;;;6238312;28;20304;-69
2023/06/08 00:37:16;;;;;;;4.90;1.80;;;;;;;;;;6236836;28;20309;-69
2023/06/08 00:40:21;;;;;;;3.28;2.05;;;;;;;;;;6238825;28;20269;-70
2023/06/08 00:43:29;;;;;;;2.47;1.42;;;;;;;;;;6238239;28;20316;-70
2023/06/08 00:46:34;;;;;;;1.52;1.40;;;;;;;;;;6237101;28;20268;-71
2023/06/08 00:49:40;;;;;;;1.42;1.42;;;;;;;;;;6236516;28;20292;-70
2023/06/08 00:52:46;;;;;;;3.30;1.65;;;;;;;;;;6237678;28;20478;-70
2023/06/08 00:55:52;;;;;;;1.85;1.27;;;;;;;;;;6238450;28;20277;-70
2023/06/08 00:59:00;;;;;;;5.43;2.13;;;;;;;;;;6237571;28;20475;-70
2023/06/08 01:02:07;;;;;;;2.97;1.42;;;;;;;;;;6236737;28;20268;-70
2023/06/08 01:05:12;;;;;;;1.33;1.30;;;;;;;;;;6239208;28;20558;-69
2023/06/08 01:08:22;;;;;;;3.20;1.40;;;;;;;;;;6237315;28;20325;-70
2023/06/08 01:11:39;;;;;;;9.73;1.60;;;;;;;;;;6237629;28;20269;-71
2023/06/08 01:14:52;;;;;;;3.47;1.85;;;;;;;;;;6236186;28;20312;-70
2023/06/08 01:18:04;;;;;;;1.30;1.27;;;;;;;;;;6236126;28;20297;-70
2023/06/08 01:21:24;;;;;;;2.10;1.40;;;;;;;;;;6238081;28;20449;-70
2023/06/08 01:24:35;;;;;;;3.83;1.40;;;;;;;;;;6237635;28;20297;-69
2023/06/08 01:27:44;;;;;;;1.50;1.50;;;;;;;;;;6238709;28;20292;-69
2023/06/08 01:30:50;;;;;;;2.60;1.35;;;;;;;;;;6243348;28;20264;-69
2023/06/08 01:33:55;;;;;;;1.40;1.40;;;;;;;;;;6237065;28;20304;-70
2023/06/08 01:37:06;;;;;;;1.98;1.40;;;;;;;;;;6237117;28;20292;-70
2023/06/08 01:40:20;;;;;;;6.88;1.65;;;;;;;;;;6236371;28;20269;-70
2023/06/08 01:43:27;;;;;;;2.00;1.23;;;;;;;;;;6237100;28;20529;-70
2023/06/08 01:46:32;;;;;;;1.20;1.20;;;;;;;;;;6237071;28;20264;-70
2023/06/08 01:49:39;;;;;;;3.53;1.35;;;;;;;;;;6234614;28;20571;-71
2023/06/08 01:52:45;;;;;;;1.40;1.40;;;;;;;;;;6235164;28;20308;-70
2023/06/08 01:55:52;;;;;;;1.58;1.50;;;;;;;;;;6236813;28;20269;-70
2023/06/08 01:58:57;;;;;;;1.45;1.40;;;;;;;;;;6234930;28;20304;-71
2023/06/08 02:02:02;;;;;;;4.28;1.60;;;;;;;;;;6234859;28;20272;-70
2023/06/08 02:05:10;;;;;;;1.52;1.52;;;;;;;;;;6236017;28;20292;-71
2023/06/08 02:08:15;;;;;;;2.40;1.50;;;;;;;;;;6235118;28;20469;-70
2023/06/08 02:11:22;;;;;;;3.60;1.40;;;;;;;;;;6236789;28;20269;-70
2023/06/08 02:14:27;;;;;;;3.40;1.50;;;;;;;;;;6235586;28;20288;-70
2023/06/08 02:17:35;;;;;;;1.10;1.10;;;;;;;;;;6234650;28;20304;-71
2023/06/08 02:20:41;;;;;;;1.75;1.38;;;;;;;;;;6234870;28;20273;-72
2023/06/08 02:23:46;;;;;;;1.98;1.55;;;;;;;;;;6236026;28;20481;-70
2023/06/08 02:26:54;;;;;;;1.67;1.30;;;;;;;;;;6235859;28;20329;-70
2023/06/08 02:30:00;;;;;;;1.20;1.20;;;;;;;;;;6235517;28;20268;-70
2023/06/08 02:33:06;;;;;;;1.33;1.27;;;;;;;;;;6234676;28;20292;-70
2023/06/08 02:36:13;;;;;;;2.17;1.25;;;;;;;;;;6234580;28;20265;-70
2023/06/08 02:39:18;;;;;;;5.80;1.55;;;;;;;;;;6235749;28;20330;-69
2023/06/08 02:42:25;;;;;;;4.70;1.67;;;;;;;;;;6234161;28;20312;-69
2023/06/08 02:45:31;;;;;;;3.58;1.35;;;;;;;;;;6236000;28;20283;-71
2023/06/08 02:48:38;;;;;;;2.25;1.45;;;;;;;;;;6234279;28;20300;-70
2023/06/08 02:51:44;;;;;;;1.65;1.55;;;;;;;;;;6236220;28;20268;-70
2023/06/08 02:54:49;;;;;;;2.33;1.40;;;;;;;;;;6234406;28;20484;-70
2023/06/08 02:57:56;;;;;;;1.73;1.63;;;;;;;;;;6234240;28;20593;-69
2023/06/08 03:01:04;;;;;;;2.78;1.50;;;;;;;;;;6234599;28;20269;-70
2023/06/08 03:04:43;;;;;;;2.20;1.42;;;;;;;;;;6225270;28;20478;-71
2023/06/08 03:07:52;;;;;;;1.40;1.38;;;;;;;;;;6234477;28;20297;-71
2023/06/08 03:10:59;;;;;;;1.58;1.58;;;;;;;;;;6218198;28;20296;-70
2023/06/08 03:14:05;;;;;;;1.50;1.50;;;;;;;;;;6235418;28;20305;-71
2023/06/08 03:17:11;;;;;;;3.90;1.40;;;;;;;;;;6226056;28;20545;-71
2023/06/08 03:20:20;;;;;;;1.58;1.20;;;;;;;;;;6239839;28;20296;-69
2023/06/08 03:23:37;;;;;;;1.38;1.38;;;;;;;;;;6238809;28;20347;-71
2023/06/08 03:26:44;;;;;;;1.42;1.38;;;;;;;;;;6239080;28;20522;-71
2023/06/08 03:29:53;;;;;;;4.15;1.30;;;;;;;;;;6238594;28;20305;-69
2023/06/08 03:33:05;;;;;;;1.55;1.55;;;;;;;;;;6239688;28;20273;-70
2023/06/08 03:36:35;;;;;;;4.88;1.50;;;;;;;;;;6247765;28;20272;-70
2023/06/08 03:39:46;;;;;;;2.65;1.40;;;;;;;;;;6214330;28;20301;-70
2023/06/08 03:42:51;;;;;;;1.30;1.30;;;;;;;;;;6214704;28;20265;-69
2023/06/08 03:46:03;;;;;;;1.50;1.50;;;;;;;;;;6214144;28;20297;-70
2023/06/08 03:49:08;;;;;;;4.68;1.80;;;;;;;;;;6214778;28;20293;-70
2023/06/08 03:52:13;;;;;;;1.50;1.40;;;;;;;;;;6214203;28;20265;-70
2023/06/08 03:55:19;;;;;;;4.22;1.50;;;;;;;;;;6214992;28;20593;-70
2023/06/08 03:58:24;;;;;;;1.52;1.45;;;;;;;;;;6213776;28;20289;-70
2023/06/08 04:01:31;;;;;;;1.30;1.20;;;;;;;;;;6215892;28;20430;-69
2023/06/08 04:04:39;;;;;;;18.60;3.10;;;;;;;;;;6214904;28;20503;-70
2023/06/08 04:07:47;;;;;;;4.20;1.70;;;;;;;;;;6214233;28;20621;-68
2023/06/08 04:10:53;;;;;;;2.42;1.50;;;;;;;;;;6221802;28;20295;-70
2023/06/08 04:13:58;;;;;;;1.70;1.60;;;;;;;;;;6237567;28;20293;-69
2023/06/08 04:17:05;;;;;;;1.70;1.60;;;;;;;;;;6219914;28;20300;-70
2023/06/08 04:20:12;;;;;;;5.40;1.65;;;;;;;;;;6213489;28;20289;-71
2023/06/08 04:23:20;;;;;;;1.50;1.50;;;;;;;;;;6213381;28;20268;-70
2023/06/08 04:26:26;;;;;;;5.03;1.88;;;;;;;;;;6213492;28;20304;-71
2023/06/08 04:29:32;;;;;;;2.28;1.63;;;;;;;;;;6214332;28;20313;-70
2023/06/08 04:32:39;;;;;;;1.75;1.67;;;;;;;;;;6212835;28;20268;-71
2023/06/08 04:35:45;;;;;;;1.83;1.70;;;;;;;;;;6213011;28;20313;-69
2023/06/08 04:38:50;;;;;;;2.85;1.95;;;;;;;;;;6212670;28;20293;-70
2023/06/08 04:41:57;;;;;;;2.03;2.03;;;;;;;;;;6213009;28;20276;-69
2023/06/08 04:45:08;;;;;;;1.73;1.73;;;;;;;;;;6212523;28;20300;-72
2023/06/08 04:48:17;;;;;;;9.63;2.67;;;;;;;;;;6212863;28;20269;-71
2023/06/08 04:51:23;;;;;;;5.63;2.05;;;;;;;;;;6213210;28;20453;-69
2023/06/08 04:54:31;;;;;;;7.25;1.95;;;;;;;;;;6213567;28;20297;-70
2023/06/08 04:57:38;;;;;;;6.13;2.50;;;;;;;;;;6213015;28;20273;-69
2023/06/08 05:00:43;;;;;;;12.52;1.88;;;;;;;;;;6212446;28;20305;-69
2023/06/08 05:03:50;;;;;;;2.13;2.08;;;;;;;;;;6213357;28;20297;-69
2023/06/08 05:06:55;;;;;;;2.25;2.10;;;;;;;;;;6212558;28;20305;-70
2023/06/08 05:10:02;;;;;;;3.08;1.80;;;;;;;;;;6214093;28;20301;-69
2023/06/08 05:13:07;;;;;;;7.80;2.40;;;;;;;;;;6237396;28;20448;-70
2023/06/08 05:16:15;;;;;;;2.33;2.15;;;;;;;;;;6226913;28;20276;-70
2023/06/08 05:19:22;;;;;;;7.20;2.65;;;;;;;;;;6213011;28;20301;-70
2023/06/08 05:22:28;;;;;;;5.85;2.28;;;;;;;;;;6213646;28;20506;-71
2023/06/08 05:25:36;;;;;;;2.60;2.40;;;;;;;;;;6213072;28;20297;-71
2023/06/08 05:28:42;;;;;;;6.65;2.30;;;;;;;;;;6212892;28;20309;-70
2023/06/08 05:31:49;;;;;;;4.72;2.13;;;;;;;;;;6213460;28;20268;-68
2023/06/08 05:34:56;;;;;;;3.63;2.92;;;;;;;;;;6211569;28;20297;-71
2023/06/08 05:38:01;;;;;;;2.45;2.25;;;;;;;;;;6213160;28;20269;-69
2023/06/08 05:41:07;;;;;;;5.50;2.42;;;;;;;;;;6212127;28;20269;-71
2023/06/08 05:44:12;;;;;;;2.88;2.10;;;;;;;;;;6211693;28;20483;-70
2023/06/08 05:47:17;;;;;;;5.45;2.28;;;;;;;;;;6213314;28;20289;-70
2023/06/08 05:50:23;;;;;;;3.15;2.47;;;;;;;;;;6212734;28;20301;-69
2023/06/08 05:53:29;;;;;;;2.83;2.10;;;;;;;;;;6212495;28;20293;-70
2023/06/08 05:56:34;;;;;;;5.28;3.00;;;;;;;;;;6211763;28;20269;-70
2023/06/08 05:59:40;;;;;;;15.60;2.88;;;;;;;;;;6212352;28;20290;-71
2023/06/08 06:02:45;;;;;;;7.43;2.45;;;;;;;;;;6212917;28;20273;-72
2023/06/08 06:05:52;;;;;;;9.73;2.58;;;;;;;;;;6212368;28;20297;-70
2023/06/08 06:08:57;;;;;;;4.40;2.30;;;;;;;;;;6211198;28;20510;-71
2023/06/08 06:12:02;;;;;;;9.48;2.80;;;;;;;;;;6229320;28;20292;-70
2023/06/08 06:15:09;;;;;;;3.20;2.72;;;;;;;;;;6234143;28;20297;-71
2023/06/08 06:18:15;;;;;;;13.15;2.70;;;;;;;;;;6211339;28;20276;-71
2023/06/08 06:21:21;;;;;;;3.10;2.47;;;;;;;;;;6212548;28;20270;-70
2023/06/08 06:24:27;;;;;;;11.88;2.67;;;;;;;;;;6211873;28;20298;-70
2023/06/08 06:27:32;;;;;;;5.82;2.70;;;;;;;;;;6211913;28;20289;-70
2023/06/08 06:30:51;;;;;;;5.55;2.97;;;;;;;;;;6211674;28;20577;-71
2023/06/08 06:33:56;;;;;;;4.38;2.70;;;;;;;;;;6211539;28;20297;-70
2023/06/08 06:37:03;;;;;;;3.97;2.25;;;;;;;;;;6212254;28;20386;-70
2023/06/08 06:40:09;;;;;;;6.40;2.08;;;;;;;;;;6211046;28;20292;-71
2023/06/08 06:43:15;;;;;;;3.20;2.70;;;;;;;;;;6211409;28;20274;-71
2023/06/08 06:46:44;;;;;;;5.45;2.42;;;;;;;;;;6203485;28;20296;-70
2023/06/08 06:49:49;;;;;;;4.80;2.17;;;;;;;;;;6211330;28;20304;-70
2023/06/08 06:52:56;;;;;;;5.15;1.90;;;;;;;;;;6211630;28;20337;-70
2023/06/08 06:56:01;;;;;;;10.52;2.38;;;;;;;;;;6210603;28;20300;-70
2023/06/08 06:59:06;;;;;;;5.55;2.20;;;;;;;;;;6211317;28;20297;-69
2023/06/08 07:02:13;;;;;;;2.83;2.47;;;;;;;;;;6212807;28;20268;-70
2023/06/08 07:05:20;;;;;;;3.35;2.33;;;;;;;;;;6210848;28;20297;-71
2023/06/08 07:08:28;;;;;;;4.30;2.58;;;;;;;;;;6211152;28;20316;-70
2023/06/08 07:11:33;;;;;;;3.15;2.42;;;;;;;;;;6224469;28;20261;-70
2023/06/08 07:14:38;;;;;;;2.92;2.70;;;;;;;;;;6235359;28;20292;-72
2023/06/08 07:17:44;;;;;;;18.63;3.38;;;;;;;;;;6211874;28;20569;-70
2023/06/08 07:20:50;;;;;;;8.85;2.55;;;;;;;;;;6210735;28;20293;-70
2023/06/08 07:23:58;;;;;;;11.93;2.88;;;;;;;;;;6210412;28;20297;-70
2023/06/08 07:27:23;;;;;;;10.05;3.20;;;;;;;;;;6210821;28;20593;-70
2023/06/08 07:30:28;;;;;;;4.68;2.53;;;;;;;;;;6210558;28;20585;-71
2023/06/08 07:33:34;;;;;;;10.52;2.85;;;;;;;;;;6210773;28;20289;-70
2023/06/08 07:36:39;;;;;;;4.32;2.65;;;;;;;;;;6211467;28;20460;-71
2023/06/08 07:39:45;;;;;;;12.13;2.97;;;;;;;;;;6210992;28;20293;-70
2023/06/08 07:42:52;;;;;;;5.22;2.95;;;;;;;;;;6210764;28;20269;-70
2023/06/08 07:45:57;;;;;;;6.78;3.00;;;;;;;;;;6210933;28;20570;-71
2023/06/08 07:49:02;;;;;;;5.57;2.55;;;;;;;;;;6210648;28;20309;-71
2023/06/08 07:52:08;;;;;;;2.72;2.47;;;;;;;;;;6211057;28;20554;-71
2023/06/08 07:55:15;;;;;;;5.60;2.78;;;;;;;;;;6210818;28;20289;-70
2023/06/08 07:58:20;;;;;;;5.82;2.67;;;;;;;;;;6210775;28;20273;-71
2023/06/08 08:01:25;;;;;;;3.03;2.80;;;;;;;;;;6210956;28;20272;-70
2023/06/08 08:04:31;;;;;;;2.80;2.58;;;;;;;;;;6210189;28;20320;-71
2023/06/08 08:07:37;;;;;;;3.25;2.80;;;;;;;;;;6212286;28;20450;-71
2023/06/08 08:10:44;;;;;;;3.65;2.75;;;;;;;;;;6221643;28;20288;-73
2023/06/08 08:13:50;;;;;;;2.50;2.40;;;;;;;;;;6239312;28;20296;-69
2023/06/08 08:16:55;;;;;;;3.63;2.60;;;;;;;;;;6222216;28;20274;-71
2023/06/08 08:20:00;;;;;;;5.85;2.22;;;;;;;;;;6214543;28;20612;-71
2023/06/08 08:23:06;;;;;;;2.78;2.60;;;;;;;;;;6214609;28;20268;-71
2023/06/08 08:26:13;;;;;;;2.90;2.70;;;;;;;;;;6214679;28;20273;-71
2023/06/08 08:29:18;;;;;;;4.07;2.80;;;;;;;;;;6214036;28;20297;-70
2023/06/08 08:32:24;;;;;;;2.70;2.50;;;;;;;;;;6214915;28;20272;-70
2023/06/08 08:35:31;;;;;;;2.65;2.45;;;;;;;;;;6214373;28;20293;-70
2023/06/08 08:38:37;;;;;;;2.80;2.30;;;;;;;;;;6213941;28;20296;-71
2023/06/08 08:41:43;;;;;;;3.05;2.75;;;;;;;;;;6214212;28;20281;-72
2023/06/08 08:44:50;;;;;;;3.03;2.50;;;;;;;;;;6212568;28;20562;-70
2023/06/08 08:47:56;;;;;;;2.70;2.60;;;;;;;;;;6213945;28;20285;-71
2023/06/08 08:51:04;;;;;;;4.70;2.80;;;;;;;;;;6214088;28;20597;-72
2023/06/08 08:54:13;;;;;;;3.20;2.63;;;;;;;;;;6213865;28;20293;-71
2023/06/08 08:57:19;;;;;;;3.83;2.78;;;;;;;;;;6212749;28;20265;-71
2023/06/08 09:00:24;;;;;;;4.80;2.78;;;;;;;;;;6213936;28;20297;-70
2023/06/08 09:03:30;;;;;;;2.60;2.45;;;;;;;;;;6213158;28;20309;-71
2023/06/08 09:06:35;;;;;;;7.22;3.10;;;;;;;;;;6213896;28;20269;-71
2023/06/08 09:10:15;;;;;;;2.70;2.50;;;;;;;;;;6213083;28;20305;-71
2023/06/08 09:13:22;;;;;;;5.85;2.90;;;;;;;;;;6213485;28;20289;-71
2023/06/08 09:16:27;;;;;;;2.75;2.70;;;;;;;;;;6213548;28;20265;-72
2023/06/08 09:19:33;;;;;;;5.22;2.50;;;;;;;;;;6211844;28;20293;-71
2023/06/08 09:22:39;;;;;;;2.95;2.60;;;;;;;;;;6213531;28;20268;-71
2023/06/08 09:25:46;;;;;;;4.13;2.90;;;;;;;;;;6213460;28;20312;-71
2023/06/08 09:28:53;;;;;;;4.72;2.88;;;;;;;;;;6213066;28;20292;-71
2023/06/08 09:31:59;;;;;;;3.05;2.83;;;;;;;;;;6213452;28;20273;-71
2023/06/08 09:35:05;;;;;;;3.03;2.47;;;;;;;;;;6212444;28;20300;-71
2023/06/08 09:38:18;;;;;;;8.90;3.38;;;;;;;;;;6212932;28;20310;-70
2023/06/08 09:41:24;;;;;;;2.70;2.65;;;;;;;;;;6212756;28;20330;-71
2023/06/08 09:44:31;;;;;;;3.08;2.83;;;;;;;;;;6216380;28;20377;-71
2023/06/08 09:47:37;;;;;;;6.47;2.97;;;;;;;;;;6238398;28;20312;-71
2023/06/08 09:50:42;;;;;;;4.63;2.65;;;;;;;;;;6236746;28;20580;-70
2023/06/08 09:53:48;;;;;;;2.72;2.53;;;;;;;;;;6236877;28;20315;-70
2023/06/08 09:56:55;;;;;;;2.53;2.50;;;;;;;;;;6237205;28;20268;-70
2023/06/08 10:00:14;;;;;;;5.00;3.53;;;;;;;;;;6236852;28;20304;-71
2023/06/08 10:03:25;;;;;;;8.18;2.47;;;;;;;;;;6236408;28;20265;-71
2023/06/08 10:06:32;;;;;;;11.00;2.60;;;;;;;;;;6236764;28;20269;-71
2023/06/08 10:09:39;;;;;;;2.25;2.25;;;;;;;;;;6251171;28;20301;-71
2023/06/08 10:12:46;;;;;;;3.42;2.60;;;;;;;;;;6236710;28;20449;-73
2023/06/08 10:15:53;;;;;;;5.22;2.72;;;;;;;;;;6227994;28;20542;-71
2023/06/08 10:19:03;;;;;;;2.63;2.42;;;;;;;;;;6211961;28;20317;-71
2023/06/08 10:22:11;;;;;;;3.17;2.20;;;;;;;;;;6212558;28;20273;-71
2023/06/08 10:25:17;;;;;;;2.38;2.22;;;;;;;;;;6211622;28;20451;-71
2023/06/08 10:28:22;;;;;;;6.43;2.10;;;;;;;;;;6211278;28;20305;-70
2023/06/08 10:31:34;;;;;;;4.72;2.15;;;;;;;;;;6211466;28;20449;-70
2023/06/08 10:34:40;;;;;;;5.68;2.08;;;;;;;;;;6211549;28;20293;-71
2023/06/08 10:37:46;;;;;;;7.13;2.38;;;;;;;;;;6212316;28;20278;-71
2023/06/08 10:40:52;;;;;;;6.53;3.03;;;;;;;;;;6211277;28;20289;-71
2023/06/08 10:44:00;;;;;;;5.65;2.20;;;;;;;;;;6211246;28;20323;-71
2023/06/08 10:47:08;;;;;;;4.78;2.58;;;;;;;;;;6211653;28;20273;-72
2023/06/08 10:50:13;;;;;;;2.53;2.33;;;;;;;;;;6211097;28;20297;-71
2023/06/08 10:53:20;;;;;;;6.13;2.20;;;;;;;;;;6211536;28;20269;-72
2023/06/08 10:56:28;;;;;;;3.35;1.98;;;;;;;;;;6211486;28;20273;-70
2023/06/08 10:59:35;;;;;;;3.22;2.10;;;;;;;;;;6210965;28;20487;-70
2023/06/08 11:02:43;;;;;;;5.68;2.00;;;;;;;;;;6211458;28;20269;-71
2023/06/08 11:05:54;;;;;;;2.25;2.20;;;;;;;;;;6211399;28;20289;-71
2023/06/08 11:09:02;;;;;;;2.95;2.85;;;;;;;;;;6210605;28;20301;-72
2023/06/08 11:12:09;;;;;;;9.73;4.45;;;;;;;;;;6231119;28;20269;-71
2023/06/08 11:15:14;;;;;;;2.38;2.28;;;;;;;;;;6232089;28;20293;-71
2023/06/08 11:18:21;;;;;;;1.73;1.65;;;;;;;;;;6211408;28;20469;-71
2023/06/08 11:21:26;;;;;;;1.80;1.77;;;;;;;;;;6211251;28;20276;-71
2023/06/08 11:24:32;;;;;;;2.00;1.90;;;;;;;;;;6210913;28;20289;-70
2023/06/08 11:27:44;;;;;;;3.88;2.00;;;;;;;;;;6211471;28;20269;-71
2023/06/08 11:30:49;;;;;;;2.10;1.90;;;;;;;;;;6210735;28;20293;-70
2023/06/08 11:33:55;;;;;;;2.03;1.88;;;;;;;;;;6210664;28;20293;-72
2023/06/08 11:37:01;;;;;;;1.83;1.75;;;;;;;;;;6211232;28;20265;-71
2023/06/08 11:40:12;;;;;;;3.17;2.17;;;;;;;;;;6209591;28;20305;-71
2023/06/08 11:43:17;;;;;;;2.40;1.88;;;;;;;;;;6213577;28;20269;-71
2023/06/08 11:46:23;;;;;;;1.92;1.73;;;;;;;;;;6215809;28;20277;-70
2023/06/08 11:49:52;;;;;;;2.42;1.90;;;;;;;;;;6215429;28;20300;-70
2023/06/08 11:52:58;;;;;;;2.00;1.90;;;;;;;;;;6215420;28;20273;-70
2023/06/08 11:56:04;;;;;;;6.32;1.80;;;;;;;;;;6215101;28;20293;-71
2023/06/08 11:59:09;;;;;;;3.85;1.90;;;;;;;;;;6214982;28;20610;-71
2023/06/08 12:02:14;;;;;;;4.20;1.75;;;;;;;;;;6215481;28;20265;-71
2023/06/08 12:05:24;;;;;;;9.00;2.28;;;;;;;;;;6215000;28;20313;-70
2023/06/08 12:08:30;;;;;;;5.60;1.80;;;;;;;;;;6215021;28;20297;-70
2023/06/08 12:11:36;;;;;;;2.30;2.05;;;;;;;;;;6229770;28;20292;-71
2023/06/08 12:14:44;;;;;;;2.70;2.05;;;;;;;;;;6239184;28;20393;-70
2023/06/08 12:17:50;;;;;;;1.90;1.80;;;;;;;;;;6238593;28;20264;-71
2023/06/08 12:20:56;;;;;;;4.07;1.83;;;;;;;;;;6239043;28;20297;-70
2023/06/08 12:24:03;;;;;;;4.00;1.80;;;;;;;;;;6239040;28;20317;-70
2023/06/08 12:27:08;;;;;;;1.83;1.75;;;;;;;;;;6238835;28;20293;-71
2023/06/08 12:30:14;;;;;;;2.28;2.03;;;;;;;;;;6238438;28;20573;-70
2023/06/08 12:33:20;;;;;;;2.33;1.98;;;;;;;;;;6238425;28;20264;-69
2023/06/08 12:36:27;;;;;;;3.75;1.85;;;;;;;;;;6238768;28;20265;-70
2023/06/08 12:39:33;;;;;;;2.72;1.98;;;;;;;;;;6238242;28;20643;-70
2023/06/08 12:42:38;;;;;;;2.50;2.30;;;;;;;;;;6238934;28;20423;-70
2023/06/08 12:45:44;;;;;;;3.47;2.20;;;;;;;;;;6238577;28;20300;-69
2023/06/08 12:48:49;;;;;;;2.17;2.05;;;;;;;;;;6238258;28;20300;-68
2023/06/08 12:51:56;;;;;;;2.20;2.00;;;;;;;;;;6238898;28;20469;-69
2023/06/08 12:55:01;;;;;;;3.03;2.30;;;;;;;;;;6238284;28;20324;-69
2023/06/08 12:58:07;;;;;;;2.13;2.13;;;;;;;;;;6237913;28;20268;-70
2023/06/08 13:01:12;;;;;;;4.22;2.42;;;;;;;;;;6238182;28;20272;-69
2023/06/08 13:04:17;;;;;;;2.20;1.92;;;;;;;;;;6237966;28;20288;-69
2023/06/08 13:07:24;;;;;;;3.28;2.17;;;;;;;;;;6237882;28;20357;-69
2023/06/08 13:10:29;;;;;;;12.57;2.17;;;;;;;;;;6232151;28;20307;-71
2023/06/08 13:13:34;;;;;;;2.00;1.90;;;;;;;;;;6213447;28;20314;-71
2023/06/08 13:16:40;;;;;;;2.50;2.40;;;;;;;;;;6228649;28;20284;-70
2023/06/08 13:19:45;;;;;;;3.45;2.47;;;;;;;;;;6237685;28;20300;-70
2023/06/08 13:22:53;;;;;;;3.90;2.30;;;;;;;;;;6238373;28;20544;-69
2023/06/08 13:25:59;;;;;;;2.30;2.30;;;;;;;;;;6237784;28;20480;-70
2023/06/08 13:29:05;;;;;;;4.55;2.45;;;;;;;;;;6237414;28;20384;-70
2023/06/08 13:32:12;;;;;;;2.47;2.28;;;;;;;;;;6237613;28;20463;-71
2023/06/08 13:35:17;;;;;;;2.95;2.72;;;;;;;;;;6237274;28;20585;-68
2023/06/08 13:38:24;;;;;;;3.13;2.90;;;;;;;;;;6237056;28;20303;-68
2023/06/08 13:41:35;;;;;;;3.45;2.30;;;;;;;;;;6237350;28;20273;-70
2023/06/08 13:44:45;;;;;;;7.00;2.45;;;;;;;;;;6237119;28;20489;-70
2023/06/08 13:47:51;;;;;;;7.25;3.22;;;;;;;;;;6237326;28;20473;-71
2023/06/08 13:50:56;;;;;;;3.10;2.90;;;;;;;;;;6237490;28;20292;-71
2023/06/08 13:54:03;;;;;;;5.88;2.38;;;;;;;;;;6237611;28;20296;-70
2023/06/08 13:57:11;;;;;;;2.70;2.60;;;;;;;;;;6252708;28;20576;-70
2023/06/08 14:00:16;;;;;;;2.50;2.40;;;;;;;;;;6236183;28;20601;-71
2023/06/08 14:03:22;;;;;;;2.50;2.30;;;;;;;;;;6236774;28;20268;-71
2023/06/08 14:06:27;;;;;;;2.20;2.20;;;;;;;;;;6235854;28;20269;-69
2023/06/08 14:09:34;;;;;;;2.47;2.20;;;;;;;;;;6235211;28;20461;-70
2023/06/08 14:12:40;;;;;;;2.15;2.15;;;;;;;;;;6212686;28;20285;-71
2023/06/08 14:15:45;;;;;;;2.13;2.03;;;;;;;;;;6219524;28;20300;-70
2023/06/08 14:18:51;;;;;;;2.38;2.17;;;;;;;;;;6234877;28;20296;-71
2023/06/08 14:21:56;;;;;;;3.20;2.60;;;;;;;;;;6236879;28;20273;-71
2023/06/08 14:25:02;;;;;;;3.38;1.98;;;;;;;;;;6235965;28;20301;-70
2023/06/08 14:28:08;;;;;;;8.18;2.33;;;;;;;;;;6235142;28;20276;-71
2023/06/08 14:31:13;;;;;;;5.43;2.00;;;;;;;;;;6236562;28;20292;-70
2023/06/08 14:34:18;;;;;;;2.15;2.08;;;;;;;;;;6235982;28;20318;-69
2023/06/08 14:37:24;;;;;;;2.00;1.90;;;;;;;;;;6236583;28;20268;-70
2023/06/08 14:40:30;;;;;;;2.10;2.00;;;;;;;;;;6235981;28;20296;-68
2023/06/08 14:43:36;;;;;;;6.18;1.85;;;;;;;;;;6234531;28;20288;-70
2023/06/08 14:46:41;;;;;;;5.88;2.00;;;;;;;;;;6235977;28;20455;-71
2023/06/08 14:49:46;;;;;;;2.97;2.20;;;;;;;;;;6235668;28;20297;-73
2023/06/08 14:52:51;;;;;;;3.40;1.90;;;;;;;;;;6235962;28;20288;-70
2023/06/08 14:55:58;;;;;;;1.75;1.75;;;;;;;;;;6235779;28;20320;-69
2023/06/08 14:59:03;;;;;;;3.72;1.45;;;;;;;;;;6235463;28;20308;-70
2023/06/08 15:02:10;;;;;;;1.80;1.80;;;;;;;;;;6236024;28;20260;-69
2023/06/08 15:05:16;;;;;;;1.80;1.70;;;;;;;;;;6235485;28;20308;-70
2023/06/08 15:08:21;;;;;;;1.70;1.60;;;;;;;;;;6235306;28;20316;-70
2023/06/08 15:11:28;;;;;;;1.70;1.70;;;;;;;;;;6222351;28;20285;-70
2023/06/08 15:14:33;;;;;;;3.88;1.70;;;;;;;;;;6210702;28;20613;-71
2023/06/08 15:17:38;;;;;;;3.13;1.70;;;;;;;;;;6237780;28;20272;-70
2023/06/08 15:20:44;;;;;;;1.50;1.50;;;;;;;;;;6240516;28;20589;-72
2023/06/08 15:23:49;;;;;;;5.35;1.80;;;;;;;;;;6240122;28;20367;-69
2023/06/08 15:26:56;;;;;;;1.70;1.60;;;;;;;;;;6240508;28;20285;-70
2023/06/08 15:30:01;;;;;;;4.25;1.50;;;;;;;;;;6239297;28;20546;-69
2023/06/08 15:33:06;;;;;;;1.52;1.50;;;;;;;;;;6239996;28;20292;-71
2023/06/08 15:36:12;;;;;;;1.55;1.55;;;;;;;;;;6240306;28;20276;-71
2023/06/08 15:39:17;;;;;;;2.22;1.70;;;;;;;;;;6238657;28;20300;-71
2023/06/08 15:42:24;;;;;;;2.05;2.00;;;;;;;;;;6240308;28;20406;-70
2023/06/08 15:45:29;;;;;;;1.40;1.40;;;;;;;;;;6240112;28;20301;-69
2023/06/08 15:48:34;;;;;;;1.70;1.70;;;;;;;;;;6240278;28;20292;-70
2023/06/08 15:51:42;;;;;;;1.85;1.45;;;;;;;;;;6239896;28;20596;-70
2023/06/08 15:54:47;;;;;;;2.10;1.70;;;;;;;;;;6239170;28;20300;-71
2023/06/08 15:57:54;;;;;;;1.70;1.60;;;;;;;;;;6239510;28;20264;-69
2023/06/08 16:00:59;;;;;;;1.58;1.48;;;;;;;;;;6239262;28;20296;-69
2023/06/08 16:04:04;;;;;;;2.25;1.52;;;;;;;;;;6239027;28;20284;-70
2023/06/08 16:07:10;;;;;;;1.80;1.80;;;;;;;;;;6238905;28;20300;-72
2023/06/08 16:10:15;;;;;;;1.60;1.60;;;;;;;;;;6235280;28;20585;-70
2023/06/08 16:13:21;;;;;;;1.40;1.40;;;;;;;;;;6214259;28;20294;-70
2023/06/08 16:16:26;;;;;;;1.45;1.45;;;;;;;;;;6228279;28;20266;-70
2023/06/08 16:19:32;;;;;;;1.88;1.77;;;;;;;;;;6238714;28;20292;-70
2023/06/08 16:22:38;;;;;;;2.47;1.50;;;;;;;;;;6238266;28;20348;-69
2023/06/08 16:25:43;;;;;;;1.85;1.30;;;;;;;;;;6237570;28;20300;-70
2023/06/08 16:28:50;;;;;;;1.70;1.67;;;;;;;;;;6238169;28;20296;-73
2023/06/08 16:31:55;;;;;;;1.83;1.73;;;;;;;;;;6237591;28;20308;-71
2023/06/08 16:35:00;;;;;;;2.85;1.70;;;;;;;;;;6238400;28;20298;-70
2023/06/08 16:38:08;;;;;;;2.85;1.63;;;;;;;;;;6238505;28;20268;-71
2023/06/08 16:41:13;;;;;;;2.00;1.85;;;;;;;;;;6238532;28;20460;-70
2023/06/08 16:44:20;;;;;;;1.85;1.75;;;;;;;;;;6238045;28;20300;-71
2023/06/08 16:47:26;;;;;;;2.80;2.03;;;;;;;;;;6238204;28;20268;-71
2023/06/08 16:50:31;;;;;;;1.92;1.70;;;;;;;;;;6238313;28;20312;-69
2023/06/08 16:53:36;;;;;;;1.63;1.27;;;;;;;;;;6237858;28;20296;-70
2023/06/08 16:56:41;;;;;;;2.85;1.60;;;;;;;;;;6237171;28;20269;-70
2023/06/08 16:59:48;;;;;;;3.67;1.15;;;;;;;;;;6238218;28;20304;-70
2023/06/08 17:02:53;;;;;;;1.10;1.10;;;;;;;;;;6238756;28;20276;-71
2023/06/08 17:05:59;;;;;;;2.72;1.40;;;;;;;;;;6238030;28;20297;-69
2023/06/08 17:09:04;;;;;;;2.03;1.50;;;;;;;;;;6237354;28;20494;-70
2023/06/08 17:12:10;;;;;;;1.20;1.15;;;;;;;;;;6219154;28;20464;-69
2023/06/08 17:15:17;;;;;;;3.60;1.40;;;;;;;;;;6217333;28;20292;-70
2023/06/08 17:18:22;;;;;;;1.85;1.20;;;;;;;;;;6237711;28;20264;-70
2023/06/08 17:21:27;;;;;;;3.15;1.10;;;;;;;;;;6238218;28;20272;-68
2023/06/08 17:24:34;;;;;;;2.78;1.23;;;;;;;;;;6237170;28;20296;-68
2023/06/08 17:27:39;;;;;;;1.48;1.42;;;;;;;;;;6237638;28;20273;-70
2023/06/08 17:30:47;;;;;;;1.52;1.40;;;;;;;;;;6237379;28;20296;-69
2023/06/08 17:33:52;;;;;;;1.58;1.40;;;;;;;;;;6236883;28;20296;-69
2023/06/08 17:36:58;;;;;;;1.85;1.20;;;;;;;;;;6238076;28;20288;-69
2023/06/08 17:40:03;;;;;;;1.30;1.30;;;;;;;;;;6236075;28;20618;-71
2023/06/08 17:43:08;;;;;;;3.75;1.25;;;;;;;;;;6236899;28;20280;-70
2023/06/08 17:46:15;;;;;;;3.00;1.70;;;;;;;;;;6237654;28;20265;-70
2023/06/08 17:49:21;;;;;;;1.35;1.35;;;;;;;;;;6237173;28;20296;-72
2023/06/08 17:52:26;;;;;;;1.17;1.17;;;;;;;;;;6237693;28;20268;-71
2023/06/08 17:55:31;;;;;;;2.05;1.50;;;;;;;;;;6237311;28;20561;-70
2023/06/08 17:58:37;;;;;;;8.32;1.88;;;;;;;;;;6237168;28;20396;-70
2023/06/08 18:01:43;;;;;;;1.92;1.70;;;;;;;;;;6237610;28;20401;-71
2023/06/08 18:04:49;;;;;;;1.67;1.58;;;;;;;;;;6236450;28;20304;-71
2023/06/08 18:07:54;;;;;;;1.20;1.20;;;;;;;;;;6236937;28;20300;-71
2023/06/08 18:10:59;;;;;;;1.40;1.40;;;;;;;;;;6226612;28;20285;-70
2023/06/08 18:14:05;;;;;;;1.20;1.20;;;;;;;;;;6210788;28;20296;-72
2023/06/08 18:17:13;;;;;;;1.48;1.25;;;;;;;;;;6231421;28;20264;-71
2023/06/08 18:20:18;;;;;;;1.25;1.25;;;;;;;;;;6236439;28;20463;-71
2023/06/08 18:23:23;;;;;;;1.33;1.10;;;;;;;;;;6235842;28;20277;-70
2023/06/08 18:26:28;;;;;;;1.10;1.10;;;;;;;;;;6236949;28;20268;-69
2023/06/08 18:29:33;;;;;;;1.10;1.10;;;;;;;;;;6234643;28;20299;-72
2023/06/08 18:32:40;;;;;;;2.55;1.15;;;;;;;;;;6236455;28;20565;-71
2023/06/08 18:35:45;;;;;;;1.67;1.67;;;;;;;;;;6235927;28;20297;-71
2023/06/08 18:38:51;;;;;;;1.48;1.40;;;;;;;;;;6235681;28;20297;-70
2023/06/08 18:41:56;;;;;;;1.30;1.20;;;;;;;;;;6235884;28;20276;-71